Time;durP1;ratioP1;P1;durP2;ratioP2;P2;SDS_P1;SDS_P2;PMS_P1;PMS_P2;Temp;Humidity;BMP_temperature;BMP_pressure;BME280_temperature;BME280_humidity;BME280_pressure;Samples;Min_cycle;Max_cycle;Signal;HPM_P1;HPM_P2
2022/07/01 03:52:25;;;;;;;2.65;0.30;;;21.50;66.10;;;;;;4752658;30;20076;-75
2022/07/01 03:54:50;;;;;;;1.75;0.30;;;21.40;67.20;;;;;;4773548;30;20384;-74
2022/07/01 03:57:16;;;;;;;2.55;0.55;;;21.50;68.00;;;;;;4761639;30;20139;-81
2022/07/01 03:59:42;;;;;;;1.70;0.43;;;21.50;68.50;;;;;;4762995;30;20324;-77
2022/07/01 04:02:48;;;;;;;2.60;0.65;;;21.50;67.70;;;;;;4877517;24;20064;-74
2022/07/01 04:05:14;;;;;;;1.20;0.50;;;21.50;67.40;;;;;;4754906;30;20402;-77
2022/07/01 04:07:40;;;;;;;3.95;0.90;;;21.50;67.10;;;;;;4739604;30;20126;-78
2022/07/01 04:10:06;;;;;;;2.55;0.70;;;21.50;66.80;;;;;;4755694;30;20075;-75
2022/07/01 04:12:32;;;;;;;2.88;0.60;;;21.40;66.60;;;;;;4755085;30;20468;-77
2022/07/01 04:14:58;;;;;;;4.97;1.25;;;21.40;66.50;;;;;;4755481;30;20436;-75
2022/07/01 04:17:24;;;;;;;3.83;0.60;;;21.40;66.40;;;;;;4755184;30;20098;-76
2022/07/01 04:19:49;;;;;;;6.07;1.05;;;21.40;66.40;;;;;;4755065;30;20059;-77
2022/07/01 04:22:33;;;;;;;2.25;0.60;;;21.40;66.40;;;;;;4755046;30;20056;-79
2022/07/01 04:25:00;;;;;;;2.75;0.93;;;21.40;66.20;;;;;;4754263;30;20051;-74
2022/07/01 04:27:26;;;;;;;3.78;0.70;;;21.40;66.20;;;;;;4755265;30;20060;-74
2022/07/01 04:29:52;;;;;;;2.38;0.47;;;21.40;66.20;;;;;;4755484;30;20364;-74
2022/07/01 04:32:18;;;;;;;4.40;0.60;;;21.30;66.10;;;;;;4755023;30;20052;-75
2022/07/01 04:34:43;;;;;;;4.40;0.80;;;21.30;65.90;;;;;;4754407;30;20070;-81
2022/07/01 04:37:09;;;;;;;4.10;0.60;;;21.30;65.80;;;;;;4725250;30;20086;-75
2022/07/01 04:39:35;;;;;;;3.17;0.80;;;21.30;65.70;;;;;;4738991;30;20074;-73
2022/07/01 04:42:01;;;;;;;3.78;0.32;;;21.30;65.80;;;;;;4754717;30;20125;-77
2022/07/01 04:44:31;;;;;;;7.28;0.95;;;21.30;66.00;;;;;;4754654;30;20052;-75
2022/07/01 04:46:58;;;;;;;3.67;0.80;;;21.30;65.80;;;;;;4754578;30;20052;-74
2022/07/01 04:49:24;;;;;;;4.07;0.60;;;21.20;65.90;;;;;;4754733;30;20124;-73
2022/07/01 04:51:50;;;;;;;4.00;0.60;;;21.20;66.00;;;;;;4754854;30;20059;-73
2022/07/01 04:54:17;;;;;;;3.17;0.75;;;21.20;66.00;;;;;;4754592;30;20056;-73
2022/07/01 04:56:43;;;;;;;2.63;0.43;;;21.10;65.80;;;;;;4754342;30;20052;-74
2022/07/01 04:59:18;;;;;;;5.10;0.80;;;21.10;66.00;;;;;;4753646;30;20117;-78
2022/07/01 05:01:45;;;;;;;4.72;0.65;;;21.10;67.60;;;;;;4730065;30;20070;-79
2022/07/01 05:04:12;;;;;;;6.03;0.82;;;21.20;67.10;;;;;;4753988;30;20060;-76
2022/07/01 05:06:38;;;;;;;2.13;0.75;;;21.20;66.80;;;;;;4738472;30;20465;-76
2022/07/01 05:09:04;;;;;;;4.00;0.60;;;21.20;66.60;;;;;;4754233;30;20475;-75
2022/07/01 05:11:30;;;;;;;8.65;0.95;;;21.20;66.30;;;;;;4754482;30;20122;-80
2022/07/01 05:13:56;;;;;;;5.38;0.80;;;21.20;66.20;;;;;;4739382;30;20476;-77
2022/07/01 05:16:22;;;;;;;5.68;0.88;;;21.20;66.10;;;;;;4751347;30;20404;-77
2022/07/01 05:24:16;;;;;;;2.58;0.98;;;21.10;65.90;;;;;;4754285;30;20064;-77
2022/07/01 05:26:42;;;;;;;3.15;0.65;;;21.10;66.00;;;;;;4754956;30;20110;-76
2022/07/01 05:29:08;;;;;;;4.60;0.73;;;21.10;66.00;;;;;;4754226;30;20123;-74
2022/07/01 05:31:34;;;;;;;5.00;0.80;;;21.10;66.00;;;;;;4754056;30;20056;-78
2022/07/01 05:34:00;;;;;;;6.30;1.25;;;21.10;66.10;;;;;;4754256;30;20441;-74
2022/07/01 05:36:26;;;;;;;4.82;0.90;;;21.10;66.20;;;;;;4754405;30;20361;-74
2022/07/01 05:38:52;;;;;;;3.78;1.15;;;21.10;66.20;;;;;;4754278;30;20064;-78
2022/07/01 05:41:18;;;;;;;5.38;0.90;;;21.10;66.10;;;;;;4754113;30;20044;-77
2022/07/01 05:43:44;;;;;;;4.78;0.90;;;21.10;66.10;;;;;;4754048;30;20052;-75
2022/07/01 05:46:10;;;;;;;4.20;0.80;;;21.10;66.10;;;;;;4738193;30;20483;-74
2022/07/01 05:48:36;;;;;;;3.83;0.93;;;21.00;66.10;;;;;;4754314;30;20060;-72
2022/07/01 05:51:02;;;;;;;5.28;1.08;;;21.00;66.10;;;;;;4754058;30;20473;-75
2022/07/01 05:53:28;;;;;;;5.78;1.35;;;21.00;66.10;;;;;;4753950;30;20056;-73
2022/07/01 05:55:54;;;;;;;3.33;0.98;;;21.00;66.20;;;;;;4754232;30;20129;-73
2022/07/01 05:58:20;;;;;;;5.85;1.30;;;21.00;66.40;;;;;;4753621;30;20044;-73
2022/07/01 06:00:45;;;;;;;5.07;0.93;;;21.00;66.50;;;;;;4753712;30;20056;-77
2022/07/01 06:03:13;;;;;;;6.68;1.70;;;21.00;66.60;;;;;;4737436;30;20052;-73
2022/07/01 06:05:40;;;;;;;7.85;2.08;;;21.00;66.60;;;;;;4736556;30;20060;-73
2022/07/01 06:08:06;;;;;;;8.38;2.20;;;21.00;66.40;;;;;;4738937;30;20084;-71
2022/07/01 06:10:33;;;;;;;4.70;2.35;;;21.00;66.80;;;;;;4740268;30;20469;-73
2022/07/01 06:13:04;;;;;;;5.45;2.22;;;20.90;66.90;;;;;;4740274;30;20176;-72
2022/07/01 06:15:31;;;;;;;7.22;3.05;;;20.90;67.10;;;;;;4755421;30;20089;-82
2022/07/01 06:18:00;;;;;;;7.53;3.60;;;20.80;67.30;;;;;;4756988;30;20048;-80
2022/07/01 06:20:25;;;;;;;9.80;3.33;;;20.80;67.00;;;;;;4726596;30;20052;-73
2022/07/01 06:22:51;;;;;;;10.65;4.13;;;20.70;67.10;;;;;;4741314;30;20452;-78
2022/07/01 06:25:17;;;;;;;8.25;4.18;;;20.60;67.20;;;;;;4741178;30;20048;-78
2022/07/01 06:27:44;;;;;;;10.10;4.45;;;20.60;67.30;;;;;;4757024;30;20467;-79
2022/07/01 06:30:11;;;;;;;9.05;4.57;;;20.60;67.60;;;;;;4756942;30;20067;-79
2022/07/01 06:32:37;;;;;;;9.10;4.07;;;20.50;68.00;;;;;;4756971;30;20139;-79
2022/07/01 06:35:06;;;;;;;9.57;4.00;;;20.50;68.60;;;;;;4741582;30;20074;-81
2022/07/01 06:37:35;;;;;;;12.25;3.83;;;20.40;68.10;;;;;;4756928;30;20048;-78
2022/07/01 06:40:06;;;;;;;11.55;3.38;;;20.40;68.50;;;;;;4756568;30;20060;-76
2022/07/01 06:42:33;;;;;;;13.43;3.78;;;20.40;68.70;;;;;;4756801;30;20141;-78
2022/07/01 06:44:59;;;;;;;12.30;3.10;;;20.50;68.80;;;;;;4740933;30;20060;-77
2022/07/01 06:47:25;;;;;;;11.85;3.33;;;20.50;68.70;;;;;;4756216;30;20063;-73
2022/07/01 06:49:50;;;;;;;11.57;3.22;;;20.60;68.70;;;;;;4756407;30;20056;-75
2022/07/01 06:52:16;;;;;;;15.50;3.70;;;20.60;68.60;;;;;;4756606;30;20056;-74
2022/07/01 06:54:42;;;;;;;10.23;3.38;;;20.70;68.50;;;;;;4756222;30;20052;-77
2022/07/01 06:57:08;;;;;;;9.27;3.13;;;20.60;68.50;;;;;;4756239;30;20413;-76
2022/07/01 06:59:34;;;;;;;21.42;4.53;;;20.60;68.60;;;;;;4756330;30;20161;-72
2022/07/01 07:02:00;;;;;;;11.52;3.10;;;20.70;68.90;;;;;;4756568;30;20083;-73
2022/07/01 07:04:26;;;;;;;8.00;2.40;;;20.70;69.20;;;;;;4755659;30;20060;-73
2022/07/01 07:06:52;;;;;;;12.10;2.20;;;20.70;68.60;;;;;;4756199;30;20067;-72
2022/07/01 07:09:17;;;;;;;9.60;2.00;;;20.80;68.60;;;;;;4756204;30;20054;-73
2022/07/01 07:11:43;;;;;;;9.20;1.88;;;20.80;68.60;;;;;;4756252;30;20384;-73
2022/07/01 07:14:09;;;;;;;6.80;2.10;;;20.80;68.50;;;;;;4755564;30;20372;-73
2022/07/01 07:16:34;;;;;;;7.88;2.00;;;20.80;68.40;;;;;;4755945;30;20487;-73
2022/07/01 07:19:00;;;;;;;10.00;1.75;;;20.90;68.50;;;;;;4756246;30;20053;-73
2022/07/01 07:21:26;;;;;;;8.85;2.08;;;20.90;68.50;;;;;;4755972;30;20125;-74
2022/07/01 07:23:52;;;;;;;5.82;1.70;;;20.90;68.50;;;;;;4755466;30;20067;-73
2022/07/01 07:26:17;;;;;;;7.90;1.58;;;20.90;68.40;;;;;;4755898;30;20052;-74
2022/07/01 07:28:43;;;;;;;8.43;2.45;;;20.90;68.30;;;;;;4756380;30;20135;-73
2022/07/01 07:31:09;;;;;;;7.35;1.80;;;20.90;68.00;;;;;;4755290;30;20476;-74
2022/07/01 07:33:35;;;;;;;7.25;1.70;;;20.80;67.90;;;;;;4755737;30;20059;-76
2022/07/01 07:36:00;;;;;;;8.75;2.15;;;20.80;67.70;;;;;;4755915;30;20052;-76
2022/07/01 07:38:26;;;;;;;7.90;1.80;;;20.70;68.40;;;;;;4756058;30;20139;-72
2022/07/01 07:40:52;;;;;;;6.90;1.90;;;20.70;67.90;;;;;;4756210;30;20056;-73
2022/07/01 07:43:18;;;;;;;7.50;1.77;;;20.70;68.00;;;;;;4755670;30;20052;-73
2022/07/01 07:45:43;;;;;;;6.80;1.90;;;20.70;68.00;;;;;;4755659;30;20047;-73
2022/07/01 07:48:09;;;;;;;6.60;1.20;;;20.70;67.90;;;;;;4755840;30;20075;-74
2022/07/01 07:50:35;;;;;;;5.57;1.52;;;20.70;67.80;;;;;;4755579;30;20052;-74
2022/07/01 07:53:01;;;;;;;6.88;1.33;;;20.70;68.00;;;;;;4755655;30;20052;-71
2022/07/01 07:55:28;;;;;;;7.30;1.42;;;20.70;67.90;;;;;;4755086;30;20059;-72
2022/07/01 07:57:54;;;;;;;4.30;1.40;;;20.70;68.20;;;;;;4755276;30;20056;-72
2022/07/01 08:00:19;;;;;;;4.32;0.93;;;20.70;68.20;;;;;;4755382;30;20127;-72
2022/07/01 08:02:45;;;;;;;7.57;1.60;;;20.80;68.30;;;;;;4754747;30;20059;-71
2022/07/01 08:05:11;;;;;;;7.45;1.60;;;20.80;68.30;;;;;;4755243;30;20056;-73
2022/07/01 08:07:39;;;;;;;5.93;1.58;;;20.90;68.30;;;;;;4756055;30;20419;-73
2022/07/01 08:10:07;;;;;;;11.35;1.30;;;20.90;68.10;;;;;;4739625;30;20060;-72
2022/07/01 08:12:33;;;;;;;4.13;1.20;;;21.00;68.20;;;;;;4754964;30;20048;-78
2022/07/01 08:15:00;;;;;;;7.43;1.45;;;21.10;67.80;;;;;;4755306;30;20135;-77
2022/07/01 08:17:26;;;;;;;3.92;0.90;;;21.10;67.60;;;;;;4755214;30;20123;-79
2022/07/01 08:19:52;;;;;;;5.28;0.88;;;21.10;67.60;;;;;;4754865;30;20441;-78
2022/07/01 08:22:19;;;;;;;3.90;1.00;;;21.10;67.60;;;;;;4754591;30;20139;-77
2022/07/01 08:24:45;;;;;;;2.80;0.80;;;21.10;67.50;;;;;;4754665;30;20108;-78
2022/07/01 08:27:12;;;;;;;5.40;0.90;;;21.20;67.70;;;;;;4754973;30;20413;-79
2022/07/01 08:29:39;;;;;;;5.22;1.25;;;21.20;67.80;;;;;;4739233;30;20055;-79
2022/07/01 08:32:05;;;;;;;5.43;1.15;;;21.20;67.60;;;;;;4754328;30;20059;-79
2022/07/01 08:34:31;;;;;;;3.63;1.30;;;21.30;67.50;;;;;;4739211;30;20373;-78
2022/07/01 08:36:57;;;;;;;2.63;0.88;;;21.20;67.70;;;;;;4739180;30;20056;-78
2022/07/01 08:39:23;;;;;;;4.95;1.25;;;21.30;67.60;;;;;;4754943;30;20063;-77
2022/07/01 08:41:48;;;;;;;5.55;0.80;;;21.30;66.50;;;;;;4754444;30;20058;-79
2022/07/01 08:44:14;;;;;;;5.25;1.30;;;21.20;65.30;;;;;;4754595;30;20060;-77
2022/07/01 08:46:40;;;;;;;6.25;0.80;;;21.20;65.00;;;;;;4724844;30;20466;-80
2022/07/01 08:49:06;;;;;;;5.78;1.00;;;21.10;65.00;;;;;;4754641;30;20404;-79
2022/07/01 08:51:32;;;;;;;2.88;1.00;;;21.10;64.70;;;;;;4754491;30;20048;-74
2022/07/01 08:53:58;;;;;;;6.10;0.88;;;21.10;64.90;;;;;;4754497;30;20480;-73
2022/07/01 08:56:42;;;;;;;5.03;0.63;;;21.10;65.10;;;;;;4754530;30;20140;-74
2022/07/01 08:59:12;;;;;;;3.58;0.63;;;21.10;65.30;;;;;;4754483;30;20067;-74
2022/07/01 09:01:39;;;;;;;5.95;0.77;;;21.20;65.40;;;;;;4754787;30;20488;-75
2022/07/01 09:04:19;;;;;;;3.65;0.60;;;21.20;65.60;;;;;;4754095;30;20529;-74
2022/07/01 09:06:45;;;;;;;2.88;0.90;;;21.30;65.60;;;;;;4754467;30;20376;-73
2022/07/01 09:09:17;;;;;;;2.63;0.57;;;21.30;65.70;;;;;;4754670;30;20445;-73
2022/07/01 09:11:46;;;;;;;4.93;0.75;;;21.30;65.50;;;;;;4753719;30;20471;-74
2022/07/01 09:14:16;;;;;;;6.30;1.08;;;21.40;65.70;;;;;;4755025;30;20063;-75
2022/07/01 09:16:51;;;;;;;8.82;1.10;;;21.40;65.80;;;;;;4754204;30;20059;-76
2022/07/01 09:19:19;;;;;;;6.03;1.20;;;21.40;65.30;;;;;;4738812;30;20052;-74
2022/07/01 09:21:56;;;;;;;3.47;0.50;;;21.40;65.10;;;;;;4738207;30;20143;-73
2022/07/01 09:24:31;;;;;;;6.15;0.82;;;21.40;64.40;;;;;;4753806;30;20059;-74
2022/07/01 09:27:04;;;;;;;3.50;0.63;;;21.40;64.20;;;;;;4754056;30;20488;-75
2022/07/01 09:29:32;;;;;;;4.00;0.63;;;21.30;64.20;;;;;;4753891;30;20160;-75
2022/07/01 09:31:59;;;;;;;5.53;0.70;;;21.30;64.00;;;;;;4723467;30;20162;-74
2022/07/01 09:34:25;;;;;;;3.80;0.75;;;21.30;64.20;;;;;;4737222;30;20368;-73
2022/07/01 09:36:53;;;;;;;6.45;0.60;;;21.30;64.40;;;;;;4754462;30;20054;-73
2022/07/01 09:39:18;;;;;;;4.68;0.95;;;21.40;64.50;;;;;;4754094;30;20139;-73
2022/07/01 09:41:44;;;;;;;4.82;0.70;;;21.40;64.40;;;;;;4754233;30;20435;-74
2022/07/01 09:44:10;;;;;;;3.90;0.45;;;21.40;64.30;;;;;;4757764;30;20419;-73
2022/07/01 09:46:36;;;;;;;3.85;0.75;;;21.40;64.10;;;;;;4758057;30;20052;-75
2022/07/01 09:49:03;;;;;;;1.40;0.38;;;21.40;63.90;;;;;;4757595;30;20444;-73
2022/07/01 09:51:29;;;;;;;3.92;0.70;;;21.40;63.90;;;;;;4756737;30;20473;-74
2022/07/01 09:53:56;;;;;;;5.40;0.60;;;21.40;63.80;;;;;;4757646;30;20052;-73
2022/07/01 09:56:23;;;;;;;3.63;0.55;;;21.40;64.80;;;;;;4757895;30;20064;-75
2022/07/01 09:58:49;;;;;;;5.93;0.50;;;21.50;65.00;;;;;;4757391;30;20071;-74
2022/07/01 10:01:16;;;;;;;3.88;0.70;;;21.50;65.30;;;;;;4741203;30;20052;-77
2022/07/01 10:03:42;;;;;;;3.25;0.73;;;21.50;64.80;;;;;;4756790;30;20071;-76
2022/07/01 10:06:24;;;;;;;5.80;0.50;;;21.50;65.10;;;;;;4757531;30;20056;-74
2022/07/01 10:09:02;;;;;;;5.30;0.60;;;21.50;65.20;;;;;;4757230;30;20096;-72
2022/07/01 10:12:15;;;;;;;2.42;0.65;;;21.50;65.20;;;;;;4756329;30;20457;-76
2022/07/01 10:14:42;;;;;;;3.53;0.90;;;21.50;64.20;;;;;;4739411;30;20090;-74
2022/07/01 10:17:08;;;;;;;2.53;1.00;;;21.50;62.80;;;;;;4751058;30;20133;-75
2022/07/01 10:19:34;;;;;;;3.00;0.70;;;21.40;62.30;;;;;;4763067;30;20447;-74
2022/07/01 10:22:24;;;;;;;2.10;0.50;;;21.40;62.60;;;;;;4774230;30;20445;-73
2022/07/01 10:24:50;;;;;;;1.00;0.50;;;21.40;62.40;;;;;;4774067;30;20055;-79
2022/07/01 10:27:24;;;;;;;3.47;0.60;;;21.40;62.80;;;;;;4768263;30;20045;-75
2022/07/01 10:30:14;;;;;;;1.42;0.57;;;21.40;62.30;;;;;;4740491;30;20095;-73
2022/07/01 10:32:47;;;;;;;4.97;0.60;;;21.30;62.70;;;;;;4740926;30;20070;-75
2022/07/01 10:35:13;;;;;;;6.90;0.65;;;21.40;63.20;;;;;;4756775;30;20443;-73
2022/07/01 10:37:58;;;;;;;3.00;0.63;;;21.40;63.40;;;;;;4756838;30;20143;-72
2022/07/01 10:40:48;;;;;;;4.90;0.70;;;21.40;63.20;;;;;;4757072;30;20091;-74
2022/07/01 10:43:34;;;;;;;2.50;0.52;;;21.40;62.60;;;;;;4757839;30;20056;-72
2022/07/01 10:46:01;;;;;;;2.22;0.60;;;21.40;63.20;;;;;;4756075;30;20083;-74
2022/07/01 10:48:30;;;;;;;2.22;0.70;;;21.40;63.50;;;;;;4756681;30;20124;-74
2022/07/01 10:50:56;;;;;;;3.28;0.43;;;21.50;63.70;;;;;;4740332;30;20056;-75
2022/07/01 10:53:22;;;;;;;1.73;0.60;;;21.50;63.80;;;;;;4755934;30;20056;-76
2022/07/01 10:55:51;;;;;;;8.93;0.88;;;21.50;63.50;;;;;;4726158;30;20066;-75
2022/07/01 10:58:20;;;;;;;3.58;0.90;;;21.50;64.40;;;;;;4756512;30;20083;-77
2022/07/01 11:00:48;;;;;;;5.68;1.35;;;21.50;63.90;;;;;;4756621;30;20048;-77
2022/07/01 11:03:22;;;;;;;6.38;1.23;;;21.50;63.20;;;;;;4738700;30;20044;-77
2022/07/01 11:05:51;;;;;;;6.07;1.05;;;21.50;61.70;;;;;;4755678;30;20060;-72
2022/07/01 11:08:17;;;;;;;6.65;1.20;;;21.50;62.40;;;;;;4740921;30;20135;-75
2022/07/01 11:10:43;;;;;;;4.13;0.70;;;21.40;63.30;;;;;;4740626;30;20131;-76
2022/07/01 11:13:14;;;;;;;3.22;0.50;;;21.40;62.90;;;;;;4755870;30;20059;-75
2022/07/01 11:15:42;;;;;;;2.05;0.60;;;21.40;62.80;;;;;;4755864;30;20189;-79
2022/07/01 11:18:08;;;;;;;3.47;0.85;;;21.30;61.70;;;;;;4756007;30;20055;-76
2022/07/01 11:20:34;;;;;;;2.97;0.70;;;21.30;62.40;;;;;;4755673;30;20070;-78
2022/07/01 11:23:00;;;;;;;3.28;0.80;;;21.30;61.30;;;;;;4740010;30;20056;-78
2022/07/01 11:25:27;;;;;;;5.43;0.95;;;21.40;61.10;;;;;;4756271;30;20059;-75
2022/07/01 11:27:53;;;;;;;5.70;1.20;;;21.40;61.80;;;;;;4755811;30;20052;-77
2022/07/01 11:30:20;;;;;;;7.38;1.02;;;21.40;61.80;;;;;;4756024;30;20406;-79
2022/07/01 11:32:49;;;;;;;5.50;0.70;;;21.40;60.90;;;;;;4753625;30;20048;-77
2022/07/01 11:40:51;;;;;;;3.45;0.80;;;21.20;60.70;;;;;;4755306;30;20480;-75
2022/07/01 11:43:34;;;;;;;5.53;0.57;;;21.30;61.30;;;;;;4755547;30;20060;-75
2022/07/01 11:46:02;;;;;;;4.63;0.40;;;21.30;60.40;;;;;;4755004;30;20052;-76
2022/07/01 11:48:41;;;;;;;3.05;0.70;;;21.20;60.60;;;;;;4754899;30;20087;-75
2022/07/01 11:51:17;;;;;;;2.75;0.57;;;21.20;60.90;;;;;;4752148;30;20135;-76
2022/07/01 11:53:46;;;;;;;3.40;0.65;;;21.20;61.30;;;;;;4755165;30;20151;-77
2022/07/01 11:56:12;;;;;;;3.30;0.70;;;21.20;61.40;;;;;;4755432;30;20049;-77
2022/07/01 11:58:50;;;;;;;1.70;0.30;;;21.20;61.60;;;;;;4755605;30;20353;-76
2022/07/01 12:01:33;;;;;;;5.45;0.40;;;21.30;61.80;;;;;;4754959;30;20507;-77
2022/07/01 12:04:02;;;;;;;1.37;0.50;;;21.30;61.90;;;;;;4755038;30;20075;-76
2022/07/01 12:06:28;;;;;;;3.70;0.47;;;21.30;61.90;;;;;;4755181;30;20301;-75
2022/07/01 12:08:56;;;;;;;2.45;0.75;;;21.40;62.50;;;;;;4755204;30;20052;-76
2022/07/01 12:11:23;;;;;;;3.85;0.50;;;21.40;62.00;;;;;;4754160;30;20048;-76
2022/07/01 12:13:51;;;;;;;1.73;0.50;;;21.40;62.00;;;;;;4752449;30;20083;-77
2022/07/01 12:16:17;;;;;;;1.38;0.40;;;21.50;62.10;;;;;;4755611;30;20107;-76
2022/07/01 12:19:00;;;;;;;0.98;0.20;;;21.50;62.20;;;;;;4755432;30;20064;-76
2022/07/01 12:21:27;;;;;;;1.45;0.20;;;21.50;62.20;;;;;;4755325;30;20537;-75
2022/07/01 12:24:13;;;;;;;1.75;0.30;;;21.50;62.30;;;;;;4755962;30;20057;-76
2022/07/01 12:26:58;;;;;;;1.83;0.30;;;21.60;62.30;;;;;;4754375;30;20505;-76
2022/07/01 12:29:29;;;;;;;2.10;0.30;;;21.60;62.40;;;;;;4737501;30;20060;-75
2022/07/01 12:32:03;;;;;;;0.70;0.20;;;21.60;62.40;;;;;;4743638;30;20115;-77
2022/07/01 12:34:40;;;;;;;3.60;0.30;;;21.60;62.40;;;;;;4753773;30;20048;-74
2022/07/01 13:44:01;;;;;;;11.05;1.67;;;21.60;62.40;;;;;;5043563;24;20068;-73
2022/07/01 13:46:27;;;;;;;14.60;1.75;;;21.60;62.50;;;;;;4754154;30;20060;-76
2022/07/01 13:48:53;;;;;;;6.85;1.08;;;21.70;62.90;;;;;;4754067;30;20048;-74
2022/07/01 13:51:18;;;;;;;14.75;1.77;;;21.70;63.20;;;;;;4753739;30;20062;-72
2022/07/01 13:53:52;;;;;;;11.55;1.27;;;21.70;63.50;;;;;;4753981;30;20127;-72
2022/07/01 13:56:18;;;;;;;9.30;1.52;;;21.70;63.70;;;;;;4754289;30;20048;-74
2022/07/01 13:58:44;;;;;;;14.50;1.52;;;21.70;63.40;;;;;;4753519;30;20490;-76
2022/07/01 14:01:10;;;;;;;9.18;1.75;;;21.80;63.60;;;;;;4753916;30;20059;-73
2022/07/01 14:03:36;;;;;;;8.55;1.50;;;21.80;63.80;;;;;;4754244;30;20052;-75
2022/07/01 14:06:01;;;;;;;9.85;1.42;;;21.80;64.10;;;;;;4753150;30;20059;-80
2022/07/01 14:08:27;;;;;;;13.45;1.77;;;21.80;64.10;;;;;;4753681;30;20048;-75
2022/07/01 14:10:54;;;;;;;6.88;1.85;;;21.80;64.00;;;;;;4753827;30;20052;-76
2022/07/01 14:13:22;;;;;;;11.88;1.40;;;21.90;63.90;;;;;;4753759;30;20052;-75
2022/07/01 14:15:48;;;;;;;10.27;1.50;;;21.90;63.90;;;;;;4753906;30;20052;-75
2022/07/01 14:18:14;;;;;;;8.70;1.80;;;21.90;64.00;;;;;;4753718;30;20139;-75
2022/07/01 14:20:43;;;;;;;11.32;1.00;;;21.90;64.00;;;;;;4753665;30;20083;-78
2022/07/01 14:23:08;;;;;;;3.08;0.85;;;21.90;61.00;;;;;;4737701;30;20052;-78
2022/07/01 14:25:34;;;;;;;12.35;2.17;;;21.90;59.80;;;;;;4738511;30;20055;-78
2022/07/01 14:28:00;;;;;;;12.05;1.30;;;21.90;59.30;;;;;;4738903;30;20056;-78
2022/07/01 14:30:26;;;;;;;6.45;1.30;;;21.80;58.00;;;;;;4756652;30;20056;-77
2022/07/01 14:32:51;;;;;;;4.47;1.00;;;21.80;56.70;;;;;;4757569;30;20044;-76
2022/07/01 14:35:17;;;;;;;4.90;0.63;;;21.70;56.20;;;;;;4756647;30;20048;-76
2022/07/01 14:37:43;;;;;;;3.83;0.68;;;21.70;56.40;;;;;;4756835;30;20056;-77
2022/07/01 14:40:11;;;;;;;4.97;0.80;;;21.60;55.90;;;;;;4756218;30;20071;-75
2022/07/01 14:42:39;;;;;;;6.70;0.95;;;21.60;55.20;;;;;;4756016;30;20392;-74
2022/07/01 14:45:06;;;;;;;10.13;1.33;;;21.50;56.60;;;;;;4756603;30;20074;-74
2022/07/01 14:47:32;;;;;;;5.43;0.80;;;21.50;57.90;;;;;;4757048;30;20075;-73
2022/07/01 14:49:58;;;;;;;8.98;0.65;;;21.60;57.20;;;;;;4756695;30;20044;-73
2022/07/01 14:52:24;;;;;;;4.28;0.93;;;21.60;56.30;;;;;;4738364;30;20368;-73
2022/07/01 14:54:51;;;;;;;5.07;1.05;;;21.60;57.00;;;;;;4739061;30;20102;-73
2022/07/01 14:57:17;;;;;;;4.28;0.50;;;21.50;57.20;;;;;;4738920;30;20430;-74
2022/07/01 14:59:42;;;;;;;2.85;0.77;;;21.50;57.40;;;;;;4740507;30;20136;-76
2022/07/01 15:02:08;;;;;;;2.20;0.45;;;21.60;57.60;;;;;;4756046;30;20083;-74
2022/07/01 15:04:34;;;;;;;5.43;0.43;;;21.60;57.70;;;;;;4756175;30;20044;-75
2022/07/01 15:07:00;;;;;;;6.55;0.77;;;21.60;58.10;;;;;;4756093;30;20056;-81
2022/07/01 15:09:26;;;;;;;8.02;1.08;;;21.70;58.60;;;;;;4726426;30;20131;-78
2022/07/01 15:11:52;;;;;;;8.52;0.98;;;21.70;59.00;;;;;;4756090;30;20455;-76
2022/07/01 15:14:18;;;;;;;5.57;0.80;;;21.80;58.60;;;;;;4756374;30;20075;-81
2022/07/01 15:16:44;;;;;;;5.55;0.70;;;21.80;58.70;;;;;;4726468;30;20060;-75
2022/07/01 15:19:11;;;;;;;4.85;0.85;;;21.80;58.80;;;;;;4756191;30;20125;-75
2022/07/01 15:21:37;;;;;;;3.63;0.63;;;21.80;58.80;;;;;;4755992;30;20093;-72
2022/07/01 15:24:03;;;;;;;4.35;0.40;;;21.80;58.40;;;;;;4756052;30;20052;-73
2022/07/01 15:26:29;;;;;;;7.18;1.00;;;21.80;58.10;;;;;;4756002;30;20052;-73
2022/07/01 15:28:55;;;;;;;2.15;0.68;;;21.80;58.20;;;;;;4756189;30;20444;-74
2022/07/01 15:31:21;;;;;;;4.90;1.35;;;21.80;58.40;;;;;;4755588;30;20052;-75
2022/07/01 15:33:47;;;;;;;3.88;0.63;;;21.80;58.50;;;;;;4755933;30;20052;-75
2022/07/01 15:36:13;;;;;;;2.25;0.40;;;21.80;58.70;;;;;;4756038;30;20119;-75
2022/07/01 15:38:39;;;;;;;5.22;0.50;;;21.80;58.70;;;;;;4755760;30;20051;-74
2022/07/01 15:41:09;;;;;;;4.20;1.25;;;21.90;58.80;;;;;;4754779;30;20460;-74
2022/07/01 15:43:35;;;;;;;4.88;0.70;;;21.90;58.80;;;;;;4755787;30;20138;-75
2022/07/01 15:46:01;;;;;;;3.20;0.57;;;21.90;58.80;;;;;;4755503;30;20485;-72
2022/07/01 15:48:27;;;;;;;2.95;0.47;;;21.90;58.80;;;;;;4755718;30;20117;-71
2022/07/01 15:50:53;;;;;;;3.50;0.40;;;21.90;58.50;;;;;;4755480;30;20062;-74
2022/07/01 15:53:23;;;;;;;1.90;0.50;;;21.90;58.50;;;;;;4742162;30;20482;-74
2022/07/01 15:55:49;;;;;;;2.83;0.47;;;21.90;58.40;;;;;;4738191;30;20052;-74
2022/07/01 15:58:17;;;;;;;3.15;0.60;;;21.90;58.00;;;;;;4737941;30;20049;-75
2022/07/01 16:00:46;;;;;;;4.63;0.63;;;21.90;58.00;;;;;;4741953;30;20499;-75
2022/07/01 16:03:12;;;;;;;4.00;0.75;;;21.90;58.10;;;;;;4738158;30;20048;-75
2022/07/01 16:05:39;;;;;;;5.10;0.50;;;21.90;58.10;;;;;;4737858;30;20136;-75
2022/07/01 16:08:07;;;;;;;1.67;0.40;;;21.90;58.00;;;;;;4737821;30;20061;-73
2022/07/01 16:10:42;;;;;;;5.95;0.60;;;21.90;58.10;;;;;;4737702;30;20142;-74
2022/07/01 16:13:11;;;;;;;3.38;0.60;;;21.90;57.80;;;;;;4754513;30;20056;-74
2022/07/01 16:15:38;;;;;;;3.00;0.75;;;21.90;58.00;;;;;;4755130;30;20056;-75
2022/07/01 16:18:09;;;;;;;3.80;0.52;;;21.90;58.30;;;;;;4729159;30;20067;-74
2022/07/01 16:20:44;;;;;;;2.10;0.65;;;21.90;58.30;;;;;;4737764;30;20060;-75
2022/07/01 16:23:13;;;;;;;2.45;0.50;;;21.90;58.50;;;;;;4752862;30;20056;-74
2022/07/01 16:25:40;;;;;;;4.40;0.80;;;21.90;58.20;;;;;;4755431;30;20064;-74
2022/07/01 16:28:09;;;;;;;8.77;1.08;;;21.90;58.10;;;;;;4754621;30;20060;-75
2022/07/01 16:30:38;;;;;;;8.43;0.95;;;22.00;58.40;;;;;;4753739;30;20052;-74
2022/07/01 18:57:24;;;;;;;4.28;0.70;;;22.30;61.40;;;;;;4754510;30;20133;-79
2022/07/01 18:59:50;;;;;;;2.60;0.65;;;22.20;59.50;;;;;;4756876;30;20052;-77
2022/07/01 19:02:17;;;;;;;3.38;0.90;;;22.10;58.30;;;;;;4757005;30;20064;-78
2022/07/01 19:04:43;;;;;;;6.28;1.13;;;22.00;57.90;;;;;;4755413;30;20090;-74
2022/07/01 19:07:11;;;;;;;2.90;0.75;;;21.80;57.60;;;;;;4778682;30;20040;-76
2022/07/01 19:09:37;;;;;;;3.83;1.13;;;21.70;57.50;;;;;;4774120;30;20101;-78
2022/07/01 19:12:04;;;;;;;3.42;1.00;;;21.60;57.50;;;;;;4759086;30;20056;-77
2022/07/01 19:14:30;;;;;;;3.97;0.93;;;21.60;57.50;;;;;;4755753;30;20059;-75
2022/07/01 19:16:57;;;;;;;3.40;1.08;;;21.50;57.40;;;;;;4756344;30;20059;-76
2022/07/01 19:19:27;;;;;;;2.85;0.70;;;21.40;57.20;;;;;;4756221;30;20131;-76
2022/07/01 19:21:54;;;;;;;3.95;0.95;;;21.30;57.40;;;;;;4757419;30;20051;-74
2022/07/01 19:24:20;;;;;;;3.45;1.33;;;21.30;57.60;;;;;;4773298;30;20052;-78
2022/07/01 19:26:46;;;;;;;2.80;0.90;;;21.20;57.80;;;;;;4774098;30;20055;-79
2022/07/01 19:29:11;;;;;;;3.13;1.10;;;21.20;57.90;;;;;;4774389;30;20070;-77
2022/07/01 19:31:37;;;;;;;7.10;1.67;;;21.10;58.40;;;;;;4774172;30;20147;-76
2022/07/01 19:34:03;;;;;;;4.70;1.27;;;21.10;58.30;;;;;;4764371;30;20060;-76
2022/07/01 19:36:29;;;;;;;2.85;0.75;;;21.10;58.30;;;;;;4755874;30;20119;-77
2022/07/01 19:38:56;;;;;;;3.83;0.90;;;21.00;58.30;;;;;;4755638;30;20059;-76
2022/07/01 19:41:22;;;;;;;3.70;1.25;;;21.00;58.50;;;;;;4756194;30;20130;-76
2022/07/01 19:43:48;;;;;;;3.13;0.82;;;20.90;58.60;;;;;;4756322;30;20449;-77
2022/07/01 19:46:14;;;;;;;2.85;0.80;;;20.90;58.50;;;;;;4755579;30;20052;-76
2022/07/01 19:48:40;;;;;;;2.75;0.68;;;20.80;58.60;;;;;;4755885;30;20113;-77
2022/07/01 19:51:06;;;;;;;3.40;0.65;;;20.80;58.50;;;;;;4756312;30;20463;-76
2022/07/01 19:53:32;;;;;;;3.83;0.93;;;20.80;59.10;;;;;;4755846;30;20074;-76
2022/07/01 19:56:00;;;;;;;3.72;0.60;;;20.70;58.60;;;;;;4755026;30;20079;-76
2022/07/01 19:58:27;;;;;;;3.13;0.77;;;20.70;58.80;;;;;;4755726;30;20557;-77
2022/07/01 20:00:53;;;;;;;2.72;0.93;;;20.60;59.20;;;;;;4755584;30;20052;-76
2022/07/01 20:03:20;;;;;;;3.45;0.93;;;20.60;59.00;;;;;;4755221;30;20431;-76
2022/07/01 20:05:46;;;;;;;4.75;1.25;;;20.60;59.10;;;;;;4755454;30;20059;-76
2022/07/01 20:08:12;;;;;;;2.65;0.70;;;20.50;59.30;;;;;;4755471;30;20464;-76
2022/07/01 20:10:38;;;;;;;4.25;0.82;;;20.50;59.40;;;;;;4755655;30;20056;-76
2022/07/01 20:13:04;;;;;;;3.67;1.00;;;20.50;59.30;;;;;;4755013;30;20048;-77
2022/07/01 20:15:32;;;;;;;2.38;0.68;;;20.50;59.40;;;;;;4755363;30;20071;-77
2022/07/01 20:17:58;;;;;;;3.60;1.00;;;20.50;59.50;;;;;;4755561;30;20056;-76
2022/07/01 20:20:23;;;;;;;4.10;0.88;;;20.50;59.60;;;;;;4755139;30;20063;-77
2022/07/01 20:22:49;;;;;;;3.35;0.65;;;20.50;59.70;;;;;;4754432;30;20174;-74